sensor_id;sensor_type;location;lat;lon;timestamp;P1;durP1;ratioP1;P2;durP2;ratioP2
78542;SDS011;67836;52.430;14.446;2023-05-28T00:01:37;11.43;;;4.40;;
78542;SDS011;67836;52.430;14.446;2023-05-28T00:04:21;9.75;;;4.60;;
78542;SDS011;67836;52.430;14.446;2023-05-28T00:07:05;9.52;;;5.45;;
78542;SDS011;67836;52.430;14.446;2023-05-28T00:09:50;12.90;;;5.50;;
78542;SDS011;67836;52.430;14.446;2023-05-28T00:12:34;12.38;;;6.00;;
78542;SDS011;67836;52.430;14.446;2023-05-28T00:15:18;12.80;;;4.97;;
78542;SDS011;67836;52.430;14.446;2023-05-28T00:18:04;10.50;;;4.35;;
78542;SDS011;67836;52.430;14.446;2023-05-28T00:20:48;8.85;;;4.15;;
78542;SDS011;67836;52.430;14.446;2023-05-28T00:26:15;9.13;;;3.90;;
78542;SDS011;67836;52.430;14.446;2023-05-28T00:28:59;11.85;;;4.38;;
78542;SDS011;67836;52.430;14.446;2023-05-28T00:31:43;10.88;;;4.90;;
78542;SDS011;67836;52.430;14.446;2023-05-28T00:34:27;11.45;;;4.40;;
78542;SDS011;67836;52.430;14.446;2023-05-28T00:37:11;13.90;;;5.32;;
78542;SDS011;67836;52.430;14.446;2023-05-28T00:39:56;9.93;;;5.40;;
78542;SDS011;67836;52.430;14.446;2023-05-28T00:42:40;11.05;;;4.80;;
78542;SDS011;67836;52.430;14.446;2023-05-28T00:45:24;14.27;;;5.72;;
78542;SDS011;67836;52.430;14.446;2023-05-28T00:48:08;11.50;;;5.63;;
78542;SDS011;67836;52.430;14.446;2023-05-28T00:50:53;11.07;;;5.28;;
78542;SDS011;67836;52.430;14.446;2023-05-28T00:53:37;12.25;;;5.28;;
78542;SDS011;67836;52.430;14.446;2023-05-28T00:56:22;10.95;;;5.15;;
78542;SDS011;67836;52.430;14.446;2023-05-28T00:59:06;11.38;;;5.20;;
78542;SDS011;67836;52.430;14.446;2023-05-28T01:01:51;10.82;;;4.93;;
78542;SDS011;67836;52.430;14.446;2023-05-28T01:04:35;10.93;;;4.43;;
78542;SDS011;67836;52.430;14.446;2023-05-28T01:07:19;13.05;;;4.82;;
78542;SDS011;67836;52.430;14.446;2023-05-28T01:10:03;10.10;;;4.70;;
78542;SDS011;67836;52.430;14.446;2023-05-28T01:12:48;11.88;;;5.10;;
78542;SDS011;67836;52.430;14.446;2023-05-28T01:15:33;11.77;;;4.50;;
78542;SDS011;67836;52.430;14.446;2023-05-28T01:18:17;11.40;;;4.78;;
78542;SDS011;67836;52.430;14.446;2023-05-28T01:21:01;11.38;;;4.35;;
78542;SDS011;67836;52.430;14.446;2023-05-28T01:23:46;11.57;;;5.32;;
78542;SDS011;67836;52.430;14.446;2023-05-28T01:26:31;12.10;;;5.75;;
78542;SDS011;67836;52.430;14.446;2023-05-28T01:29:15;9.77;;;4.10;;
78542;SDS011;67836;52.430;14.446;2023-05-28T01:32:00;10.05;;;4.20;;
78542;SDS011;67836;52.430;14.446;2023-05-28T01:34:44;10.05;;;3.97;;
78542;SDS011;67836;52.430;14.446;2023-05-28T01:37:29;9.90;;;4.45;;
78542;SDS011;67836;52.430;14.446;2023-05-28T01:40:14;13.82;;;4.68;;
78542;SDS011;67836;52.430;14.446;2023-05-28T01:42:59;14.77;;;5.68;;
78542;SDS011;67836;52.430;14.446;2023-05-28T01:45:45;9.13;;;3.80;;
78542;SDS011;67836;52.430;14.446;2023-05-28T01:48:29;11.40;;;4.45;;
78542;SDS011;67836;52.430;14.446;2023-05-28T01:51:16;8.60;;;4.10;;
78542;SDS011;67836;52.430;14.446;2023-05-28T01:54:04;8.45;;;3.58;;
78542;SDS011;67836;52.430;14.446;2023-05-28T01:56:48;7.28;;;3.30;;
78542;SDS011;67836;52.430;14.446;2023-05-28T01:59:32;10.18;;;3.70;;
78542;SDS011;67836;52.430;14.446;2023-05-28T02:02:16;8.63;;;4.00;;
78542;SDS011;67836;52.430;14.446;2023-05-28T02:05:00;11.15;;;3.92;;
78542;SDS011;67836;52.430;14.446;2023-05-28T02:07:44;10.25;;;4.30;;
78542;SDS011;67836;52.430;14.446;2023-05-28T02:10:29;12.48;;;4.28;;
78542;SDS011;67836;52.430;14.446;2023-05-28T02:13:13;11.40;;;4.20;;
78542;SDS011;67836;52.430;14.446;2023-05-28T02:15:58;12.20;;;4.20;;
78542;SDS011;67836;52.430;14.446;2023-05-28T02:18:42;9.07;;;3.95;;
78542;SDS011;67836;52.430;14.446;2023-05-28T02:24:09;11.45;;;3.33;;
78542;SDS011;67836;52.430;14.446;2023-05-28T02:26:54;8.25;;;3.22;;
78542;SDS011;67836;52.430;14.446;2023-05-28T02:29:38;10.10;;;3.42;;
78542;SDS011;67836;52.430;14.446;2023-05-28T02:32:22;7.47;;;3.30;;
78542;SDS011;67836;52.430;14.446;2023-05-28T02:35:06;9.68;;;4.13;;
78542;SDS011;67836;52.430;14.446;2023-05-28T02:37:51;8.45;;;3.63;;
78542;SDS011;67836;52.430;14.446;2023-05-28T02:40:35;11.95;;;3.75;;
78542;SDS011;67836;52.430;14.446;2023-05-28T02:43:18;6.65;;;3.00;;
78542;SDS011;67836;52.430;14.446;2023-05-28T02:46:03;9.57;;;3.53;;
78542;SDS011;67836;52.430;14.446;2023-05-28T02:48:47;9.35;;;3.42;;
78542;SDS011;67836;52.430;14.446;2023-05-28T02:51:31;10.73;;;4.10;;
78542;SDS011;67836;52.430;14.446;2023-05-28T02:54:15;12.15;;;4.80;;
78542;SDS011;67836;52.430;14.446;2023-05-28T02:59:43;9.25;;;3.47;;
78542;SDS011;67836;52.430;14.446;2023-05-28T03:02:27;10.32;;;4.10;;
78542;SDS011;67836;52.430;14.446;2023-05-28T03:05:11;9.70;;;3.90;;
78542;SDS011;67836;52.430;14.446;2023-05-28T03:07:55;10.30;;;4.32;;
78542;SDS011;67836;52.430;14.446;2023-05-28T03:10:39;9.57;;;4.15;;
78542;SDS011;67836;52.430;14.446;2023-05-28T03:13:23;11.70;;;5.32;;
78542;SDS011;67836;52.430;14.446;2023-05-28T03:16:08;9.40;;;3.45;;
78542;SDS011;67836;52.430;14.446;2023-05-28T03:18:52;10.48;;;3.72;;
78542;SDS011;67836;52.430;14.446;2023-05-28T03:21:36;10.00;;;4.30;;
78542;SDS011;67836;52.430;14.446;2023-05-28T03:24:20;12.15;;;4.05;;
78542;SDS011;67836;52.430;14.446;2023-05-28T03:27:05;10.60;;;3.90;;
78542;SDS011;67836;52.430;14.446;2023-05-28T03:29:49;10.35;;;4.32;;
78542;SDS011;67836;52.430;14.446;2023-05-28T03:32:33;10.68;;;4.88;;
78542;SDS011;67836;52.430;14.446;2023-05-28T03:35:17;11.48;;;4.40;;
78542;SDS011;67836;52.430;14.446;2023-05-28T03:38:01;8.65;;;3.53;;
78542;SDS011;67836;52.430;14.446;2023-05-28T03:40:46;11.60;;;3.95;;
78542;SDS011;67836;52.430;14.446;2023-05-28T03:43:29;8.60;;;3.53;;
78542;SDS011;67836;52.430;14.446;2023-05-28T03:46:14;11.10;;;5.00;;
78542;SDS011;67836;52.430;14.446;2023-05-28T03:48:58;10.88;;;4.03;;
78542;SDS011;67836;52.430;14.446;2023-05-28T03:51:41;10.93;;;4.43;;
78542;SDS011;67836;52.430;14.446;2023-05-28T03:54:26;11.90;;;4.82;;
78542;SDS011;67836;52.430;14.446;2023-05-28T03:57:10;10.10;;;4.30;;
78542;SDS011;67836;52.430;14.446;2023-05-28T03:59:54;10.80;;;4.53;;
78542;SDS011;67836;52.430;14.446;2023-05-28T04:02:40;9.07;;;4.10;;
78542;SDS011;67836;52.430;14.446;2023-05-28T04:05:25;9.70;;;4.45;;
78542;SDS011;67836;52.430;14.446;2023-05-28T04:08:09;8.18;;;4.07;;
78542;SDS011;67836;52.430;14.446;2023-05-28T04:10:53;9.40;;;4.18;;
78542;SDS011;67836;52.430;14.446;2023-05-28T04:13:46;10.43;;;4.25;;
78542;SDS011;67836;52.430;14.446;2023-05-28T04:19:15;10.82;;;4.45;;
78542;SDS011;67836;52.430;14.446;2023-05-28T04:22:00;11.18;;;4.30;;
78542;SDS011;67836;52.430;14.446;2023-05-28T04:24:44;9.10;;;4.13;;
78542;SDS011;67836;52.430;14.446;2023-05-28T04:27:29;9.23;;;4.97;;
78542;SDS011;67836;52.430;14.446;2023-05-28T04:30:14;11.27;;;4.88;;
78542;SDS011;67836;52.430;14.446;2023-05-28T04:32:58;9.73;;;4.38;;
78542;SDS011;67836;52.430;14.446;2023-05-28T04:35:42;10.23;;;5.25;;
78542;SDS011;67836;52.430;14.446;2023-05-28T04:38:26;9.90;;;4.93;;
78542;SDS011;67836;52.430;14.446;2023-05-28T04:41:15;9.70;;;4.72;;
78542;SDS011;67836;52.430;14.446;2023-05-28T04:43:59;11.52;;;5.55;;
78542;SDS011;67836;52.430;14.446;2023-05-28T04:46:43;11.13;;;4.63;;
78542;SDS011;67836;52.430;14.446;2023-05-28T04:49:28;10.38;;;4.30;;
78542;SDS011;67836;52.430;14.446;2023-05-28T04:52:13;10.85;;;4.72;;
78542;SDS011;67836;52.430;14.446;2023-05-28T04:54:57;9.38;;;4.78;;
78542;SDS011;67836;52.430;14.446;2023-05-28T04:57:41;12.57;;;5.07;;
78542;SDS011;67836;52.430;14.446;2023-05-28T05:00:25;10.48;;;4.97;;
78542;SDS011;67836;52.430;14.446;2023-05-28T05:03:10;12.43;;;4.85;;
78542;SDS011;67836;52.430;14.446;2023-05-28T05:05:55;10.88;;;5.57;;
78542;SDS011;67836;52.430;14.446;2023-05-28T05:08:39;10.80;;;4.95;;
78542;SDS011;67836;52.430;14.446;2023-05-28T05:11:23;11.73;;;5.65;;
78542;SDS011;67836;52.430;14.446;2023-05-28T05:14:07;11.05;;;4.82;;
78542;SDS011;67836;52.430;14.446;2023-05-28T05:16:51;9.27;;;4.53;;
78542;SDS011;67836;52.430;14.446;2023-05-28T05:19:36;12.90;;;4.97;;
78542;SDS011;67836;52.430;14.446;2023-05-28T05:22:20;12.38;;;5.45;;
78542;SDS011;67836;52.430;14.446;2023-05-28T05:25:04;10.93;;;5.20;;
78542;SDS011;67836;52.430;14.446;2023-05-28T05:27:59;9.40;;;4.40;;
78542;SDS011;67836;52.430;14.446;2023-05-28T05:30:43;10.73;;;4.05;;
78542;SDS011;67836;52.430;14.446;2023-05-28T05:33:27;12.70;;;4.93;;
78542;SDS011;67836;52.430;14.446;2023-05-28T05:36:11;10.60;;;4.75;;
78542;SDS011;67836;52.430;14.446;2023-05-28T05:38:55;9.00;;;4.32;;
78542;SDS011;67836;52.430;14.446;2023-05-28T05:41:39;12.73;;;4.90;;
78542;SDS011;67836;52.430;14.446;2023-05-28T05:44:23;8.85;;;4.57;;
78542;SDS011;67836;52.430;14.446;2023-05-28T05:47:08;9.50;;;4.20;;
78542;SDS011;67836;52.430;14.446;2023-05-28T05:49:51;8.98;;;3.92;;
78542;SDS011;67836;52.430;14.446;2023-05-28T05:52:35;10.40;;;4.40;;
78542;SDS011;67836;52.430;14.446;2023-05-28T05:55:20;7.50;;;3.55;;
78542;SDS011;67836;52.430;14.446;2023-05-28T05:58:04;9.73;;;4.43;;
78542;SDS011;67836;52.430;14.446;2023-05-28T06:00:48;9.43;;;4.10;;
78542;SDS011;67836;52.430;14.446;2023-05-28T06:03:32;11.02;;;4.40;;
78542;SDS011;67836;52.430;14.446;2023-05-28T06:06:16;8.43;;;4.18;;
78542;SDS011;67836;52.430;14.446;2023-05-28T06:09:00;10.98;;;4.15;;
78542;SDS011;67836;52.430;14.446;2023-05-28T06:11:44;9.70;;;4.20;;
78542;SDS011;67836;52.430;14.446;2023-05-28T06:14:29;8.32;;;3.88;;
78542;SDS011;67836;52.430;14.446;2023-05-28T06:17:13;8.80;;;4.10;;
78542;SDS011;67836;52.430;14.446;2023-05-28T06:19:58;7.68;;;3.60;;
78542;SDS011;67836;52.430;14.446;2023-05-28T06:22:43;9.52;;;3.53;;
78542;SDS011;67836;52.430;14.446;2023-05-28T06:25:27;7.82;;;3.78;;
78542;SDS011;67836;52.430;14.446;2023-05-28T06:28:11;7.90;;;3.10;;
78542;SDS011;67836;52.430;14.446;2023-05-28T06:30:56;8.23;;;3.58;;
78542;SDS011;67836;52.430;14.446;2023-05-28T06:33:40;7.22;;;3.13;;
78542;SDS011;67836;52.430;14.446;2023-05-28T06:36:24;9.55;;;3.78;;
78542;SDS011;67836;52.430;14.446;2023-05-28T06:39:08;8.55;;;3.70;;
78542;SDS011;67836;52.430;14.446;2023-05-28T06:41:52;10.88;;;3.50;;
78542;SDS011;67836;52.430;14.446;2023-05-28T06:44:36;6.88;;;3.33;;
78542;SDS011;67836;52.430;14.446;2023-05-28T06:47:20;6.90;;;3.45;;
78542;SDS011;67836;52.430;14.446;2023-05-28T06:50:05;7.70;;;3.50;;
78542;SDS011;67836;52.430;14.446;2023-05-28T06:52:50;8.00;;;3.20;;
78542;SDS011;67836;52.430;14.446;2023-05-28T06:55:34;7.78;;;3.08;;
78542;SDS011;67836;52.430;14.446;2023-05-28T06:58:18;10.13;;;3.13;;
78542;SDS011;67836;52.430;14.446;2023-05-28T07:01:02;7.32;;;2.90;;
78542;SDS011;67836;52.430;14.446;2023-05-28T07:03:47;6.38;;;2.90;;
78542;SDS011;67836;52.430;14.446;2023-05-28T07:06:31;6.85;;;3.10;;
78542;SDS011;67836;52.430;14.446;2023-05-28T07:09:16;7.47;;;2.80;;
78542;SDS011;67836;52.430;14.446;2023-05-28T07:12:00;7.60;;;2.85;;
78542;SDS011;67836;52.430;14.446;2023-05-28T07:14:45;6.68;;;2.83;;
78542;SDS011;67836;52.430;14.446;2023-05-28T07:17:29;6.97;;;2.78;;
78542;SDS011;67836;52.430;14.446;2023-05-28T07:20:14;7.63;;;2.90;;
78542;SDS011;67836;52.430;14.446;2023-05-28T07:22:59;7.60;;;2.88;;
78542;SDS011;67836;52.430;14.446;2023-05-28T07:25:43;7.60;;;2.90;;
78542;SDS011;67836;52.430;14.446;2023-05-28T07:28:27;5.00;;;2.50;;
78542;SDS011;67836;52.430;14.446;2023-05-28T07:31:12;5.53;;;2.65;;
78542;SDS011;67836;52.430;14.446;2023-05-28T07:33:56;7.68;;;2.75;;
78542;SDS011;67836;52.430;14.446;2023-05-28T07:36:41;7.15;;;2.60;;
78542;SDS011;67836;52.430;14.446;2023-05-28T07:39:25;6.22;;;2.60;;
78542;SDS011;67836;52.430;14.446;2023-05-28T07:42:09;6.47;;;2.60;;
78542;SDS011;67836;52.430;14.446;2023-05-28T07:44:54;6.07;;;2.30;;
78542;SDS011;67836;52.430;14.446;2023-05-28T07:47:38;4.78;;;2.35;;
78542;SDS011;67836;52.430;14.446;2023-05-28T07:50:22;6.35;;;2.53;;
78542;SDS011;67836;52.430;14.446;2023-05-28T07:53:06;6.07;;;2.20;;
78542;SDS011;67836;52.430;14.446;2023-05-28T07:55:50;4.63;;;2.30;;
78542;SDS011;67836;52.430;14.446;2023-05-28T07:58:36;5.82;;;1.98;;
78542;SDS011;67836;52.430;14.446;2023-05-28T08:01:20;5.32;;;2.30;;
78542;SDS011;67836;52.430;14.446;2023-05-28T08:04:05;5.75;;;2.28;;
78542;SDS011;67836;52.430;14.446;2023-05-28T08:06:48;4.47;;;1.90;;
78542;SDS011;67836;52.430;14.446;2023-05-28T08:09:32;6.13;;;2.13;;
78542;SDS011;67836;52.430;14.446;2023-05-28T08:12:17;4.53;;;2.00;;
78542;SDS011;67836;52.430;14.446;2023-05-28T08:15:01;5.70;;;1.75;;
78542;SDS011;67836;52.430;14.446;2023-05-28T08:17:45;4.35;;;1.65;;
78542;SDS011;67836;52.430;14.446;2023-05-28T08:20:29;5.95;;;1.70;;
78542;SDS011;67836;52.430;14.446;2023-05-28T08:23:13;4.50;;;1.75;;
78542;SDS011;67836;52.430;14.446;2023-05-28T08:25:57;6.10;;;1.92;;
78542;SDS011;67836;52.430;14.446;2023-05-28T08:28:41;6.43;;;1.65;;
78542;SDS011;67836;52.430;14.446;2023-05-28T08:31:25;4.68;;;1.70;;
78542;SDS011;67836;52.430;14.446;2023-05-28T08:34:09;5.20;;;1.52;;
78542;SDS011;67836;52.430;14.446;2023-05-28T08:36:54;4.22;;;1.70;;
78542;SDS011;67836;52.430;14.446;2023-05-28T08:39:38;4.13;;;1.52;;
78542;SDS011;67836;52.430;14.446;2023-05-28T08:42:22;5.43;;;1.75;;
78542;SDS011;67836;52.430;14.446;2023-05-28T08:45:07;4.93;;;1.90;;
78542;SDS011;67836;52.430;14.446;2023-05-28T08:47:51;6.03;;;1.80;;
78542;SDS011;67836;52.430;14.446;2023-05-28T08:50:36;4.72;;;1.85;;
78542;SDS011;67836;52.430;14.446;2023-05-28T08:53:23;4.53;;;1.70;;
78542;SDS011;67836;52.430;14.446;2023-05-28T08:56:08;4.80;;;1.38;;
78542;SDS011;67836;52.430;14.446;2023-05-28T08:58:53;6.38;;;1.80;;
78542;SDS011;67836;52.430;14.446;2023-05-28T09:01:37;3.58;;;1.42;;
78542;SDS011;67836;52.430;14.446;2023-05-28T09:04:22;5.28;;;1.98;;
78542;SDS011;67836;52.430;14.446;2023-05-28T09:07:06;5.28;;;1.90;;
78542;SDS011;67836;52.430;14.446;2023-05-28T09:09:50;7.35;;;2.08;;
78542;SDS011;67836;52.430;14.446;2023-05-28T09:12:35;3.92;;;1.83;;
78542;SDS011;67836;52.430;14.446;2023-05-28T09:15:21;4.63;;;1.80;;
78542;SDS011;67836;52.430;14.446;2023-05-28T09:18:05;5.57;;;1.90;;
78542;SDS011;67836;52.430;14.446;2023-05-28T09:20:50;6.43;;;2.20;;
78542;SDS011;67836;52.430;14.446;2023-05-28T09:23:34;5.25;;;1.90;;
78542;SDS011;67836;52.430;14.446;2023-05-28T09:26:19;6.93;;;2.22;;
78542;SDS011;67836;52.430;14.446;2023-05-28T09:29:10;4.07;;;1.70;;
78542;SDS011;67836;52.430;14.446;2023-05-28T09:31:56;4.47;;;1.83;;
78542;SDS011;67836;52.430;14.446;2023-05-28T09:34:41;4.97;;;1.40;;
78542;SDS011;67836;52.430;14.446;2023-05-28T09:37:29;6.57;;;1.92;;
78542;SDS011;67836;52.430;14.446;2023-05-28T09:40:13;4.78;;;1.90;;
78542;SDS011;67836;52.430;14.446;2023-05-28T09:42:59;6.63;;;2.20;;
78542;SDS011;67836;52.430;14.446;2023-05-28T09:45:47;5.35;;;1.77;;
78542;SDS011;67836;52.430;14.446;2023-05-28T09:48:32;5.00;;;1.80;;
78542;SDS011;67836;52.430;14.446;2023-05-28T09:51:16;3.58;;;1.50;;
78542;SDS011;67836;52.430;14.446;2023-05-28T09:54:02;5.22;;;1.83;;
78542;SDS011;67836;52.430;14.446;2023-05-28T09:56:48;5.30;;;1.77;;
78542;SDS011;67836;52.430;14.446;2023-05-28T09:59:34;5.70;;;1.50;;
78542;SDS011;67836;52.430;14.446;2023-05-28T10:02:24;5.35;;;1.67;;
78542;SDS011;67836;52.430;14.446;2023-05-28T10:05:11;5.15;;;1.75;;
78542;SDS011;67836;52.430;14.446;2023-05-28T10:07:57;3.92;;;1.58;;
78542;SDS011;67836;52.430;14.446;2023-05-28T10:10:44;6.10;;;1.80;;
78542;SDS011;67836;52.430;14.446;2023-05-28T10:13:30;4.75;;;1.80;;
78542;SDS011;67836;52.430;14.446;2023-05-28T10:16:14;4.53;;;1.80;;
78542;SDS011;67836;52.430;14.446;2023-05-28T10:18:58;5.30;;;1.70;;
78542;SDS011;67836;52.430;14.446;2023-05-28T10:21:43;5.25;;;1.75;;
78542;SDS011;67836;52.430;14.446;2023-05-28T10:24:27;3.58;;;1.00;;
78542;SDS011;67836;52.430;14.446;2023-05-28T10:27:14;4.63;;;1.40;;
78542;SDS011;67836;52.430;14.446;2023-05-28T10:30:02;4.47;;;1.30;;
78542;SDS011;67836;52.430;14.446;2023-05-28T10:32:48;5.65;;;1.58;;
78542;SDS011;67836;52.430;14.446;2023-05-28T10:35:33;4.50;;;1.80;;
78542;SDS011;67836;52.430;14.446;2023-05-28T10:38:18;5.03;;;1.65;;
78542;SDS011;67836;52.430;14.446;2023-05-28T10:41:02;4.38;;;1.80;;
78542;SDS011;67836;52.430;14.446;2023-05-28T10:43:47;6.97;;;3.25;;
78542;SDS011;67836;52.430;14.446;2023-05-28T10:46:35;6.55;;;1.80;;
78542;SDS011;67836;52.430;14.446;2023-05-28T10:49:23;5.07;;;1.80;;
78542;SDS011;67836;52.430;14.446;2023-05-28T10:52:07;4.85;;;1.60;;
78542;SDS011;67836;52.430;14.446;2023-05-28T10:54:52;4.65;;;1.73;;
78542;SDS011;67836;52.430;14.446;2023-05-28T10:57:40;4.38;;;1.70;;
78542;SDS011;67836;52.430;14.446;2023-05-28T11:00:28;5.28;;;1.77;;
78542;SDS011;67836;52.430;14.446;2023-05-28T11:03:13;4.18;;;1.70;;
78542;SDS011;67836;52.430;14.446;2023-05-28T11:06:02;4.50;;;1.73;;
78542;SDS011;67836;52.430;14.446;2023-05-28T11:08:47;8.20;;;1.60;;
78542;SDS011;67836;52.430;14.446;2023-05-28T11:11:32;4.57;;;2.08;;
78542;SDS011;67836;52.430;14.446;2023-05-28T11:14:16;5.28;;;1.80;;
78542;SDS011;67836;52.430;14.446;2023-05-28T11:17:00;4.50;;;1.80;;
78542;SDS011;67836;52.430;14.446;2023-05-28T11:19:45;4.57;;;1.70;;
78542;SDS011;67836;52.430;14.446;2023-05-28T11:22:33;4.32;;;1.75;;
78542;SDS011;67836;52.430;14.446;2023-05-28T11:25:21;4.53;;;1.67;;
78542;SDS011;67836;52.430;14.446;2023-05-28T11:28:06;3.83;;;1.70;;
78542;SDS011;67836;52.430;14.446;2023-05-28T11:30:51;5.28;;;1.70;;
78542;SDS011;67836;52.430;14.446;2023-05-28T11:33:35;4.88;;;1.70;;
78542;SDS011;67836;52.430;14.446;2023-05-28T11:36:20;4.07;;;1.77;;
78542;SDS011;67836;52.430;14.446;2023-05-28T11:39:03;4.47;;;2.00;;
78542;SDS011;67836;52.430;14.446;2023-05-28T11:41:48;4.80;;;1.95;;
78542;SDS011;67836;52.430;14.446;2023-05-28T11:44:32;3.47;;;1.70;;
78542;SDS011;67836;52.430;14.446;2023-05-28T11:47:17;5.65;;;1.80;;
78542;SDS011;67836;52.430;14.446;2023-05-28T11:50:19;4.15;;;1.80;;
78542;SDS011;67836;52.430;14.446;2023-05-28T11:53:05;4.70;;;1.70;;
78542;SDS011;67836;52.430;14.446;2023-05-28T11:55:49;5.28;;;1.98;;
78542;SDS011;67836;52.430;14.446;2023-05-28T11:58:33;5.68;;;1.80;;
78542;SDS011;67836;52.430;14.446;2023-05-28T12:01:18;4.88;;;1.73;;
78542;SDS011;67836;52.430;14.446;2023-05-28T12:04:05;3.72;;;1.67;;
78542;SDS011;67836;52.430;14.446;2023-05-28T12:06:50;4.63;;;1.60;;
78542;SDS011;67836;52.430;14.446;2023-05-28T12:09:35;4.50;;;1.70;;
78542;SDS011;67836;52.430;14.446;2023-05-28T12:12:19;3.85;;;1.63;;
78542;SDS011;67836;52.430;14.446;2023-05-28T12:15:03;4.25;;;1.60;;
78542;SDS011;67836;52.430;14.446;2023-05-28T12:17:52;5.20;;;1.98;;
78542;SDS011;67836;52.430;14.446;2023-05-28T12:20:39;4.15;;;1.60;;
78542;SDS011;67836;52.430;14.446;2023-05-28T12:23:24;4.38;;;1.80;;
78542;SDS011;67836;52.430;14.446;2023-05-28T12:26:09;3.92;;;1.48;;
78542;SDS011;67836;52.430;14.446;2023-05-28T12:28:54;5.28;;;1.50;;
78542;SDS011;67836;52.430;14.446;2023-05-28T12:31:38;5.63;;;1.83;;
78542;SDS011;67836;52.430;14.446;2023-05-28T12:34:23;6.55;;;1.63;;
78542;SDS011;67836;52.430;14.446;2023-05-28T12:37:06;3.53;;;1.80;;
78542;SDS011;67836;52.430;14.446;2023-05-28T12:39:51;4.38;;;1.73;;
78542;SDS011;67836;52.430;14.446;2023-05-28T12:42:35;5.75;;;1.55;;
78542;SDS011;67836;52.430;14.446;2023-05-28T12:45:19;4.10;;;1.75;;
78542;SDS011;67836;52.430;14.446;2023-05-28T12:48:03;5.10;;;1.80;;
78542;SDS011;67836;52.430;14.446;2023-05-28T12:50:47;3.85;;;1.70;;
78542;SDS011;67836;52.430;14.446;2023-05-28T12:53:31;3.35;;;1.60;;
78542;SDS011;67836;52.430;14.446;2023-05-28T12:56:15;3.55;;;1.67;;
78542;SDS011;67836;52.430;14.446;2023-05-28T12:59:01;5.32;;;1.63;;
78542;SDS011;67836;52.430;14.446;2023-05-28T13:01:45;5.68;;;2.00;;
78542;SDS011;67836;52.430;14.446;2023-05-28T13:04:29;3.10;;;1.42;;
78542;SDS011;67836;52.430;14.446;2023-05-28T13:07:13;5.78;;;1.80;;
78542;SDS011;67836;52.430;14.446;2023-05-28T13:09:58;3.85;;;1.70;;
78542;SDS011;67836;52.430;14.446;2023-05-28T13:12:42;4.25;;;1.85;;
78542;SDS011;67836;52.430;14.446;2023-05-28T13:15:26;10.73;;;5.45;;
78542;SDS011;67836;52.430;14.446;2023-05-28T13:18:10;4.18;;;1.50;;
78542;SDS011;67836;52.430;14.446;2023-05-28T13:20:54;4.50;;;2.00;;
78542;SDS011;67836;52.430;14.446;2023-05-28T13:23:39;5.68;;;1.83;;
78542;SDS011;67836;52.430;14.446;2023-05-28T13:26:23;5.07;;;2.22;;
78542;SDS011;67836;52.430;14.446;2023-05-28T13:29:07;3.65;;;1.52;;
78542;SDS011;67836;52.430;14.446;2023-05-28T13:31:50;4.78;;;1.98;;
78542;SDS011;67836;52.430;14.446;2023-05-28T13:34:34;3.35;;;1.70;;
78542;SDS011;67836;52.430;14.446;2023-05-28T13:37:19;5.10;;;1.88;;
78542;SDS011;67836;52.430;14.446;2023-05-28T13:40:03;4.35;;;1.80;;
78542;SDS011;67836;52.430;14.446;2023-05-28T13:42:51;5.00;;;1.98;;
78542;SDS011;67836;52.430;14.446;2023-05-28T13:45:35;4.57;;;1.70;;
78542;SDS011;67836;52.430;14.446;2023-05-28T13:48:20;2.83;;;1.63;;
78542;SDS011;67836;52.430;14.446;2023-05-28T13:51:04;3.10;;;1.42;;
78542;SDS011;67836;52.430;14.446;2023-05-28T13:53:48;2.92;;;1.70;;
78542;SDS011;67836;52.430;14.446;2023-05-28T13:56:32;3.85;;;1.73;;
78542;SDS011;67836;52.430;14.446;2023-05-28T13:59:16;3.22;;;1.40;;
78542;SDS011;67836;52.430;14.446;2023-05-28T14:02:00;5.28;;;1.75;;
78542;SDS011;67836;52.430;14.446;2023-05-28T14:04:44;3.45;;;1.55;;
78542;SDS011;67836;52.430;14.446;2023-05-28T14:07:28;4.20;;;1.63;;
78542;SDS011;67836;52.430;14.446;2023-05-28T14:10:13;5.93;;;1.70;;
78542;SDS011;67836;52.430;14.446;2023-05-28T14:12:57;5.90;;;1.73;;
78542;SDS011;67836;52.430;14.446;2023-05-28T14:15:41;6.13;;;1.65;;
78542;SDS011;67836;52.430;14.446;2023-05-28T14:18:25;5.10;;;1.77;;
78542;SDS011;67836;52.430;14.446;2023-05-28T14:21:09;4.47;;;1.90;;
78542;SDS011;67836;52.430;14.446;2023-05-28T14:23:54;4.28;;;1.70;;
78542;SDS011;67836;52.430;14.446;2023-05-28T14:26:39;5.15;;;2.00;;
78542;SDS011;67836;52.430;14.446;2023-05-28T14:29:22;3.70;;;1.52;;
78542;SDS011;67836;52.430;14.446;2023-05-28T14:32:07;5.07;;;1.60;;
78542;SDS011;67836;52.430;14.446;2023-05-28T14:34:50;3.92;;;1.88;;
78542;SDS011;67836;52.430;14.446;2023-05-28T14:37:34;3.30;;;1.30;;
78542;SDS011;67836;52.430;14.446;2023-05-28T14:40:19;4.47;;;1.83;;
78542;SDS011;67836;52.430;14.446;2023-05-28T14:43:03;5.55;;;1.70;;
78542;SDS011;67836;52.430;14.446;2023-05-28T14:45:47;4.55;;;1.55;;
78542;SDS011;67836;52.430;14.446;2023-05-28T14:48:31;5.47;;;1.67;;
78542;SDS011;67836;52.430;14.446;2023-05-28T14:51:15;5.03;;;1.70;;
78542;SDS011;67836;52.430;14.446;2023-05-28T14:53:59;8.23;;;2.08;;
78542;SDS011;67836;52.430;14.446;2023-05-28T14:56:43;5.15;;;1.60;;
78542;SDS011;67836;52.430;14.446;2023-05-28T14:59:27;5.80;;;1.60;;
78542;SDS011;67836;52.430;14.446;2023-05-28T15:02:11;4.20;;;1.70;;
78542;SDS011;67836;52.430;14.446;2023-05-28T15:04:55;4.10;;;1.40;;
78542;SDS011;67836;52.430;14.446;2023-05-28T15:07:38;5.80;;;1.58;;
78542;SDS011;67836;52.430;14.446;2023-05-28T15:10:23;4.85;;;1.98;;
78542;SDS011;67836;52.430;14.446;2023-05-28T15:13:07;4.53;;;1.90;;
78542;SDS011;67836;52.430;14.446;2023-05-28T15:15:51;4.35;;;1.77;;
78542;SDS011;67836;52.430;14.446;2023-05-28T15:18:35;3.70;;;1.75;;
78542;SDS011;67836;52.430;14.446;2023-05-28T15:21:19;4.03;;;1.80;;
78542;SDS011;67836;52.430;14.446;2023-05-28T15:24:04;3.78;;;1.60;;
78542;SDS011;67836;52.430;14.446;2023-05-28T15:26:48;5.47;;;1.55;;
78542;SDS011;67836;52.430;14.446;2023-05-28T15:29:33;3.55;;;1.35;;
78542;SDS011;67836;52.430;14.446;2023-05-28T15:32:17;5.32;;;1.48;;
78542;SDS011;67836;52.430;14.446;2023-05-28T15:35:01;3.85;;;1.60;;
78542;SDS011;67836;52.430;14.446;2023-05-28T15:37:46;4.80;;;1.80;;
78542;SDS011;67836;52.430;14.446;2023-05-28T15:40:31;5.78;;;1.85;;
78542;SDS011;67836;52.430;14.446;2023-05-28T15:43:15;4.22;;;2.00;;
78542;SDS011;67836;52.430;14.446;2023-05-28T15:46:00;3.67;;;1.45;;
78542;SDS011;67836;52.430;14.446;2023-05-28T15:48:45;2.35;;;1.08;;
78542;SDS011;67836;52.430;14.446;2023-05-28T15:51:29;4.47;;;1.38;;
78542;SDS011;67836;52.430;14.446;2023-05-28T15:54:16;3.00;;;1.33;;
78542;SDS011;67836;52.430;14.446;2023-05-28T15:57:00;4.68;;;1.70;;
78542;SDS011;67836;52.430;14.446;2023-05-28T15:59:44;5.32;;;1.60;;
78542;SDS011;67836;52.430;14.446;2023-05-28T16:02:28;3.95;;;1.48;;
78542;SDS011;67836;52.430;14.446;2023-05-28T16:05:14;4.03;;;1.60;;
78542;SDS011;67836;52.430;14.446;2023-05-28T16:07:58;3.65;;;1.50;;
78542;SDS011;67836;52.430;14.446;2023-05-28T16:10:42;3.95;;;1.80;;
78542;SDS011;67836;52.430;14.446;2023-05-28T16:13:27;4.47;;;1.63;;
78542;SDS011;67836;52.430;14.446;2023-05-28T16:16:12;4.07;;;1.67;;
78542;SDS011;67836;52.430;14.446;2023-05-28T16:18:59;2.65;;;1.10;;
78542;SDS011;67836;52.430;14.446;2023-05-28T16:21:44;6.25;;;1.80;;
78542;SDS011;67836;52.430;14.446;2023-05-28T16:24:28;2.95;;;1.50;;